Pleasant Ridge, Louisiana
Current Conditions -  °F | °C
As of 1:38 AM on Wednesday 22 Oct 2014 (Local Time) from KESF Reporting Station
Haze Haze  
Wind Chill: 14°   Ceiling: Unl
Heat Index: 14°   Visibility: 2mi
Dew Point: 13°   Wind: 0mph
Humidity: 96%   Direction: NA
Pressure: 30.06"   Gusts: NA
Location:  31.8657°N, 92.2616°W
Report Text: KESF 220638Z AUTO 00000KT 2SM BR SCT045 14/13 A3006 RMK AO2 T01390133
Loading
Personal Weather Stations






























Interactive Weather Map
Tropical Storm Tracking
New forecast layout! Learn more

10-Day Weather Forecast

Advertisements
Track Severe Weather on mobile